sensor_id;sensor_type;location;lat;lon;timestamp;temperature;humidity
66594;DHT22;53450;42.584;23.366;2024-03-25T00:01:25;3.38;85.80
66594;DHT22;53450;42.584;23.366;2024-03-25T00:03:50;3.38;86.06
66594;DHT22;53450;42.584;23.366;2024-03-25T00:06:16;3.28;86.16
66594;DHT22;53450;42.584;23.366;2024-03-25T00:08:42;3.16;85.73
66594;DHT22;53450;42.584;23.366;2024-03-25T00:11:07;3.19;86.27
66594;DHT22;53450;42.584;23.366;2024-03-25T00:13:33;3.19;86.64
66594;DHT22;53450;42.584;23.366;2024-03-25T00:15:59;3.23;86.45
66594;DHT22;53450;42.584;23.366;2024-03-25T00:18:24;3.22;86.22
66594;DHT22;53450;42.584;23.366;2024-03-25T00:20:50;3.22;86.75
66594;DHT22;53450;42.584;23.366;2024-03-25T00:23:17;3.28;86.90
66594;DHT22;53450;42.584;23.366;2024-03-25T00:25:42;2.99;86.71
66594;DHT22;53450;42.584;23.366;2024-03-25T00:28:08;2.99;87.58
66594;DHT22;53450;42.584;23.366;2024-03-25T00:30:33;2.96;87.50
66594;DHT22;53450;42.584;23.366;2024-03-25T00:32:59;2.86;87.58
66594;DHT22;53450;42.584;23.366;2024-03-25T00:35:25;2.91;87.77
66594;DHT22;53450;42.584;23.366;2024-03-25T00:37:51;2.74;87.50
66594;DHT22;53450;42.584;23.366;2024-03-25T00:40:16;2.54;87.93
66594;DHT22;53450;42.584;23.366;2024-03-25T00:42:43;2.51;88.10
66594;DHT22;53450;42.584;23.366;2024-03-25T00:45:08;2.64;88.48
66594;DHT22;53450;42.584;23.366;2024-03-25T00:47:35;2.61;88.21
66594;DHT22;53450;42.584;23.366;2024-03-25T00:50:01;2.62;88.24
66594;DHT22;53450;42.584;23.366;2024-03-25T00:52:26;2.58;88.14
66594;DHT22;53450;42.584;23.366;2024-03-25T00:54:52;2.66;88.31
66594;DHT22;53450;42.584;23.366;2024-03-25T00:57:18;2.61;87.99
66594;DHT22;53450;42.584;23.366;2024-03-25T00:59:43;2.61;88.10
66594;DHT22;53450;42.584;23.366;2024-03-25T01:02:09;2.66;88.17
66594;DHT22;53450;42.584;23.366;2024-03-25T01:04:35;2.69;87.88
66594;DHT22;53450;42.584;23.366;2024-03-25T01:07:01;2.69;87.99
66594;DHT22;53450;42.584;23.366;2024-03-25T01:09:27;2.62;88.04
66594;DHT22;53450;42.584;23.366;2024-03-25T01:11:52;2.48;88.18
66594;DHT22;53450;42.584;23.366;2024-03-25T01:14:18;2.52;88.33
66594;DHT22;53450;42.584;23.366;2024-03-25T01:16:44;2.55;88.24
66594;DHT22;53450;42.584;23.366;2024-03-25T01:19:09;2.64;88.13
66594;DHT22;53450;42.584;23.366;2024-03-25T01:21:35;2.69;88.28
66594;DHT22;53450;42.584;23.366;2024-03-25T01:24:00;2.71;88.18
66594;DHT22;53450;42.584;23.366;2024-03-25T01:26:26;2.54;88.03
66594;DHT22;53450;42.584;23.366;2024-03-25T01:28:54;2.57;88.29
66594;DHT22;53450;42.584;23.366;2024-03-25T01:31:20;2.76;88.43
66594;DHT22;53450;42.584;23.366;2024-03-25T01:33:45;2.92;88.58
66594;DHT22;53450;42.584;23.366;2024-03-25T01:36:11;2.93;88.43
66594;DHT22;53450;42.584;23.366;2024-03-25T01:38:42;2.89;88.11
66594;DHT22;53450;42.584;23.366;2024-03-25T01:41:12;2.84;87.73
66594;DHT22;53450;42.584;23.366;2024-03-25T01:43:40;2.88;87.78
66594;DHT22;53450;42.584;23.366;2024-03-25T01:46:06;2.89;88.09
66594;DHT22;53450;42.584;23.366;2024-03-25T01:48:33;2.91;88.06
66594;DHT22;53450;42.584;23.366;2024-03-25T01:50:58;2.85;87.98
66594;DHT22;53450;42.584;23.366;2024-03-25T01:53:30;2.79;88.25
66594;DHT22;53450;42.584;23.366;2024-03-25T01:55:56;2.84;88.38
66594;DHT22;53450;42.584;23.366;2024-03-25T01:58:23;2.95;88.29
66594;DHT22;53450;42.584;23.366;2024-03-25T02:00:50;2.99;88.16
66594;DHT22;53450;42.584;23.366;2024-03-25T02:03:16;2.99;87.96
66594;DHT22;53450;42.584;23.366;2024-03-25T02:05:43;3.03;87.34
66594;DHT22;53450;42.584;23.366;2024-03-25T02:08:09;3.05;87.29
66594;DHT22;53450;42.584;23.366;2024-03-25T02:10:36;3.10;87.09
66594;DHT22;53450;42.584;23.366;2024-03-25T02:13:03;3.40;86.87
66594;DHT22;53450;42.584;23.366;2024-03-25T02:15:29;3.16;85.91
66594;DHT22;53450;42.584;23.366;2024-03-25T02:17:54;3.02;86.36
66594;DHT22;53450;42.584;23.366;2024-03-25T02:20:20;2.95;87.16
66594;DHT22;53450;42.584;23.366;2024-03-25T02:22:46;2.65;87.34
66594;DHT22;53450;42.584;23.366;2024-03-25T02:25:14;2.74;88.02
66594;DHT22;53450;42.584;23.366;2024-03-25T02:27:41;2.74;88.37
66594;DHT22;53450;42.584;23.366;2024-03-25T02:30:08;2.59;88.54
66594;DHT22;53450;42.584;23.366;2024-03-25T02:32:35;2.57;88.96
66594;DHT22;53450;42.584;23.366;2024-03-25T02:35:02;2.38;89.04
66594;DHT22;53450;42.584;23.366;2024-03-25T02:37:29;2.21;89.09
66594;DHT22;53450;42.584;23.366;2024-03-25T02:39:57;2.17;89.50
66594;DHT22;53450;42.584;23.366;2024-03-25T02:42:28;2.16;89.56
66594;DHT22;53450;42.584;23.366;2024-03-25T02:44:55;2.21;89.70
66594;DHT22;53450;42.584;23.366;2024-03-25T02:47:21;2.16;89.75
66594;DHT22;53450;42.584;23.366;2024-03-25T02:49:47;2.06;89.58
66594;DHT22;53450;42.584;23.366;2024-03-25T02:52:12;2.09;89.47
66594;DHT22;53450;42.584;23.366;2024-03-25T02:54:38;2.20;88.67
66594;DHT22;53450;42.584;23.366;2024-03-25T02:57:04;2.21;88.34
66594;DHT22;53450;42.584;23.366;2024-03-25T02:59:29;2.34;87.27
66594;DHT22;53450;42.584;23.366;2024-03-25T03:01:55;2.30;86.70
66594;DHT22;53450;42.584;23.366;2024-03-25T03:04:21;2.40;87.00
66594;DHT22;53450;42.584;23.366;2024-03-25T03:06:46;2.35;86.44
66594;DHT22;53450;42.584;23.366;2024-03-25T03:09:12;2.33;86.33
66594;DHT22;53450;42.584;23.366;2024-03-25T03:11:37;2.26;86.08
66594;DHT22;53450;42.584;23.366;2024-03-25T03:14:03;2.21;86.30
66594;DHT22;53450;42.584;23.366;2024-03-25T03:16:29;2.17;86.20
66594;DHT22;53450;42.584;23.366;2024-03-25T03:18:55;2.11;85.96
66594;DHT22;53450;42.584;23.366;2024-03-25T03:21:20;2.09;86.09
66594;DHT22;53450;42.584;23.366;2024-03-25T03:23:46;2.09;85.97
66594;DHT22;53450;42.584;23.366;2024-03-25T03:26:12;2.10;85.33
66594;DHT22;53450;42.584;23.366;2024-03-25T03:28:40;2.24;84.06
66594;DHT22;53450;42.584;23.366;2024-03-25T03:31:05;2.31;84.07
66594;DHT22;53450;42.584;23.366;2024-03-25T03:33:31;2.40;83.27
66594;DHT22;53450;42.584;23.366;2024-03-25T03:35:57;2.44;82.40
66594;DHT22;53450;42.584;23.366;2024-03-25T03:38:22;2.62;81.67
66594;DHT22;53450;42.584;23.366;2024-03-25T03:41:02;2.62;81.56
66594;DHT22;53450;42.584;23.366;2024-03-25T03:43:28;2.68;81.07
66594;DHT22;53450;42.584;23.366;2024-03-25T03:45:54;2.72;81.44
66594;DHT22;53450;42.584;23.366;2024-03-25T03:48:20;2.74;80.08
66594;DHT22;53450;42.584;23.366;2024-03-25T03:50:46;2.72;80.76
66594;DHT22;53450;42.584;23.366;2024-03-25T03:53:12;2.74;80.58
66594;DHT22;53450;42.584;23.366;2024-03-25T03:55:37;2.72;80.76
66594;DHT22;53450;42.584;23.366;2024-03-25T03:58:04;2.68;81.29
66594;DHT22;53450;42.584;23.366;2024-03-25T04:00:34;2.62;82.02
66594;DHT22;53450;42.584;23.366;2024-03-25T04:03:00;2.55;82.71
66594;DHT22;53450;42.584;23.366;2024-03-25T04:05:32;2.45;81.25
66594;DHT22;53450;42.584;23.366;2024-03-25T04:07:58;2.44;81.78
66594;DHT22;53450;42.584;23.366;2024-03-25T04:10:23;2.49;81.52
66594;DHT22;53450;42.584;23.366;2024-03-25T04:12:49;2.45;80.83
66594;DHT22;53450;42.584;23.366;2024-03-25T04:15:15;2.37;81.29
66594;DHT22;53450;42.584;23.366;2024-03-25T04:17:46;2.35;82.53
66594;DHT22;53450;42.584;23.366;2024-03-25T04:20:12;2.35;82.34
66594;DHT22;53450;42.584;23.366;2024-03-25T04:22:41;2.21;81.75
66594;DHT22;53450;42.584;23.366;2024-03-25T04:25:09;2.27;81.51
66594;DHT22;53450;42.584;23.366;2024-03-25T04:27:38;2.27;81.55
66594;DHT22;53450;42.584;23.366;2024-03-25T04:30:05;2.11;82.12
66594;DHT22;53450;42.584;23.366;2024-03-25T04:32:32;2.24;82.03
66594;DHT22;53450;42.584;23.366;2024-03-25T04:34:58;2.14;82.23
66594;DHT22;53450;42.584;23.366;2024-03-25T04:37:24;2.24;82.22
66594;DHT22;53450;42.584;23.366;2024-03-25T04:39:49;2.28;82.19
66594;DHT22;53450;42.584;23.366;2024-03-25T04:42:17;2.27;81.34
66594;DHT22;53450;42.584;23.366;2024-03-25T04:44:43;2.38;80.63
66594;DHT22;53450;42.584;23.366;2024-03-25T04:47:09;2.37;79.85
66594;DHT22;53450;42.584;23.366;2024-03-25T04:49:34;2.37;80.17
66594;DHT22;53450;42.584;23.366;2024-03-25T04:52:00;2.42;80.45
66594;DHT22;53450;42.584;23.366;2024-03-25T04:54:26;2.33;80.13
66594;DHT22;53450;42.584;23.366;2024-03-25T04:56:51;2.30;79.81
66594;DHT22;53450;42.584;23.366;2024-03-25T04:59:17;2.23;78.92
66594;DHT22;53450;42.584;23.366;2024-03-25T05:01:43;2.13;79.24
66594;DHT22;53450;42.584;23.366;2024-03-25T05:04:08;2.21;80.24
66594;DHT22;53450;42.584;23.366;2024-03-25T05:06:35;2.21;79.65
66594;DHT22;53450;42.584;23.366;2024-03-25T05:09:01;2.16;80.10
66594;DHT22;53450;42.584;23.366;2024-03-25T05:11:27;2.11;80.46
66594;DHT22;53450;42.584;23.366;2024-03-25T05:13:52;2.14;80.25
66594;DHT22;53450;42.584;23.366;2024-03-25T05:16:18;2.14;79.92
66594;DHT22;53450;42.584;23.366;2024-03-25T05:18:44;2.10;80.52
66594;DHT22;53450;42.584;23.366;2024-03-25T05:21:09;2.10;80.85
66594;DHT22;53450;42.584;23.366;2024-03-25T05:23:35;2.16;79.66
66594;DHT22;53450;42.584;23.366;2024-03-25T05:26:00;2.14;79.24
66594;DHT22;53450;42.584;23.366;2024-03-25T05:28:26;2.21;79.75
66594;DHT22;53450;42.584;23.366;2024-03-25T05:30:52;2.24;79.43
66594;DHT22;53450;42.584;23.366;2024-03-25T05:33:17;2.27;79.79
66594;DHT22;53450;42.584;23.366;2024-03-25T05:35:43;2.21;79.91
66594;DHT22;53450;42.584;23.366;2024-03-25T05:38:08;2.21;79.69
66594;DHT22;53450;42.584;23.366;2024-03-25T05:40:34;2.17;79.38
66594;DHT22;53450;42.584;23.366;2024-03-25T05:42:59;2.14;79.42
66594;DHT22;53450;42.584;23.366;2024-03-25T05:45:25;2.14;78.71
66594;DHT22;53450;42.584;23.366;2024-03-25T05:47:50;2.11;78.20
66594;DHT22;53450;42.584;23.366;2024-03-25T05:50:16;2.17;78.00
66594;DHT22;53450;42.584;23.366;2024-03-25T05:52:42;2.18;77.85
66594;DHT22;53450;42.584;23.366;2024-03-25T05:55:08;2.18;76.81
66594;DHT22;53450;42.584;23.366;2024-03-25T05:57:36;2.16;77.54
66594;DHT22;53450;42.584;23.366;2024-03-25T06:00:02;2.13;77.16
66594;DHT22;53450;42.584;23.366;2024-03-25T06:02:37;2.18;76.77
66594;DHT22;53450;42.584;23.366;2024-03-25T06:05:04;2.21;76.90
66594;DHT22;53450;42.584;23.366;2024-03-25T06:07:30;2.24;76.78
66594;DHT22;53450;42.584;23.366;2024-03-25T06:09:56;2.27;76.31
66594;DHT22;53450;42.584;23.366;2024-03-25T06:12:21;2.28;76.55
66594;DHT22;53450;42.584;23.366;2024-03-25T06:14:47;2.42;76.45
66594;DHT22;53450;42.584;23.366;2024-03-25T06:17:12;2.33;76.33
66594;DHT22;53450;42.584;23.366;2024-03-25T06:19:38;2.28;76.15
66594;DHT22;53450;42.584;23.366;2024-03-25T06:22:03;2.27;75.51
66594;DHT22;53450;42.584;23.366;2024-03-25T06:24:30;2.26;76.39
66594;DHT22;53450;42.584;23.366;2024-03-25T06:26:55;2.28;76.36
66594;DHT22;53450;42.584;23.366;2024-03-25T06:29:21;2.44;75.54
66594;DHT22;53450;42.584;23.366;2024-03-25T06:31:47;2.51;75.44
66594;DHT22;53450;42.584;23.366;2024-03-25T06:34:31;2.66;75.72
66594;DHT22;53450;42.584;23.366;2024-03-25T06:36:57;2.65;75.51
66594;DHT22;53450;42.584;23.366;2024-03-25T06:39:22;2.78;75.53
66594;DHT22;53450;42.584;23.366;2024-03-25T06:41:48;2.74;74.54
66594;DHT22;53450;42.584;23.366;2024-03-25T06:44:14;2.81;74.33
66594;DHT22;53450;42.584;23.366;2024-03-25T06:46:39;2.81;73.68
66594;DHT22;53450;42.584;23.366;2024-03-25T06:49:05;2.88;73.08
66594;DHT22;53450;42.584;23.366;2024-03-25T06:51:30;2.91;72.51
66594;DHT22;53450;42.584;23.366;2024-03-25T06:53:56;2.96;72.25
66594;DHT22;53450;42.584;23.366;2024-03-25T06:56:22;3.03;72.00
66594;DHT22;53450;42.584;23.366;2024-03-25T06:58:47;3.05;71.87
66594;DHT22;53450;42.584;23.366;2024-03-25T07:01:13;3.03;73.14
66594;DHT22;53450;42.584;23.366;2024-03-25T07:03:39;3.05;71.19
66594;DHT22;53450;42.584;23.366;2024-03-25T07:06:05;3.19;71.58
66594;DHT22;53450;42.584;23.366;2024-03-25T07:08:31;3.15;71.41
66594;DHT22;53450;42.584;23.366;2024-03-25T07:10:57;3.16;71.48
66594;DHT22;53450;42.584;23.366;2024-03-25T07:13:23;3.17;71.81
66594;DHT22;53450;42.584;23.366;2024-03-25T07:15:49;3.20;70.96
66594;DHT22;53450;42.584;23.366;2024-03-25T07:18:14;3.22;71.49
66594;DHT22;53450;42.584;23.366;2024-03-25T07:20:40;3.38;71.88
66594;DHT22;53450;42.584;23.366;2024-03-25T07:23:06;3.65;72.13
66594;DHT22;53450;42.584;23.366;2024-03-25T07:25:32;3.71;69.82
66594;DHT22;53450;42.584;23.366;2024-03-25T07:27:58;3.94;71.00
66594;DHT22;53450;42.584;23.366;2024-03-25T07:30:24;3.96;69.85
66594;DHT22;53450;42.584;23.366;2024-03-25T07:32:57;4.01;69.85
66594;DHT22;53450;42.584;23.366;2024-03-25T07:35:23;4.12;67.75
66594;DHT22;53450;42.584;23.366;2024-03-25T07:37:49;4.32;67.12
66594;DHT22;53450;42.584;23.366;2024-03-25T07:40:17;4.43;67.78
66594;DHT22;53450;42.584;23.366;2024-03-25T07:42:43;4.56;67.43
66594;DHT22;53450;42.584;23.366;2024-03-25T07:45:09;4.80;65.07
66594;DHT22;53450;42.584;23.366;2024-03-25T07:47:35;4.85;64.20
66594;DHT22;53450;42.584;23.366;2024-03-25T07:50:00;4.84;64.53
66594;DHT22;53450;42.584;23.366;2024-03-25T07:52:26;4.96;64.04
66594;DHT22;53450;42.584;23.366;2024-03-25T07:54:53;5.13;65.53
66594;DHT22;53450;42.584;23.366;2024-03-25T07:57:18;5.09;63.75
66594;DHT22;53450;42.584;23.366;2024-03-25T07:59:45;5.13;64.84
66594;DHT22;53450;42.584;23.366;2024-03-25T08:02:10;5.12;61.61
66594;DHT22;53450;42.584;23.366;2024-03-25T08:04:36;5.02;60.41
66594;DHT22;53450;42.584;23.366;2024-03-25T08:07:02;5.25;60.30
66594;DHT22;53450;42.584;23.366;2024-03-25T08:09:28;5.22;61.07
66594;DHT22;53450;42.584;23.366;2024-03-25T08:11:54;5.28;60.79
66594;DHT22;53450;42.584;23.366;2024-03-25T08:14:19;5.42;58.21
66594;DHT22;53450;42.584;23.366;2024-03-25T08:16:45;5.38;59.88
66594;DHT22;53450;42.584;23.366;2024-03-25T08:19:11;5.46;60.08
66594;DHT22;53450;42.584;23.366;2024-03-25T08:21:36;5.50;58.77
66594;DHT22;53450;42.584;23.366;2024-03-25T08:24:02;5.44;58.47
66594;DHT22;53450;42.584;23.366;2024-03-25T08:26:28;5.32;58.81
66594;DHT22;53450;42.584;23.366;2024-03-25T08:28:53;5.53;60.12
66594;DHT22;53450;42.584;23.366;2024-03-25T08:31:19;5.47;58.34
66594;DHT22;53450;42.584;23.366;2024-03-25T08:33:44;5.46;56.63
66594;DHT22;53450;42.584;23.366;2024-03-25T08:36:10;5.64;58.74
66594;DHT22;53450;42.584;23.366;2024-03-25T08:38:36;5.63;60.28
66594;DHT22;53450;42.584;23.366;2024-03-25T08:41:01;5.70;60.57
66594;DHT22;53450;42.584;23.366;2024-03-25T08:43:27;5.70;60.69
66594;DHT22;53450;42.584;23.366;2024-03-25T08:45:53;5.59;60.46
66594;DHT22;53450;42.584;23.366;2024-03-25T08:48:18;5.39;60.18
66594;DHT22;53450;42.584;23.366;2024-03-25T08:50:44;5.40;60.96
66594;DHT22;53450;42.584;23.366;2024-03-25T08:53:09;5.46;58.91
66594;DHT22;53450;42.584;23.366;2024-03-25T08:55:35;5.69;59.21
66594;DHT22;53450;42.584;23.366;2024-03-25T08:58:01;5.73;60.22
66594;DHT22;53450;42.584;23.366;2024-03-25T09:00:27;5.89;60.27
66594;DHT22;53450;42.584;23.366;2024-03-25T09:02:54;5.89;59.18
66594;DHT22;53450;42.584;23.366;2024-03-25T09:05:20;5.91;57.97
66594;DHT22;53450;42.584;23.366;2024-03-25T09:07:49;5.81;61.10
66594;DHT22;53450;42.584;23.366;2024-03-25T09:10:17;5.83;61.30
66594;DHT22;53450;42.584;23.366;2024-03-25T09:13:01;6.01;59.20
66594;DHT22;53450;42.584;23.366;2024-03-25T09:15:29;6.15;57.85
66594;DHT22;53450;42.584;23.366;2024-03-25T09:17:54;6.24;58.04
66594;DHT22;53450;42.584;23.366;2024-03-25T09:20:20;6.33;58.51
66594;DHT22;53450;42.584;23.366;2024-03-25T09:22:47;6.18;59.59
66594;DHT22;53450;42.584;23.366;2024-03-25T09:25:14;6.11;58.93
66594;DHT22;53450;42.584;23.366;2024-03-25T09:27:40;5.86;62.67
66594;DHT22;53450;42.584;23.366;2024-03-25T09:30:06;5.94;62.73
66594;DHT22;53450;42.584;23.366;2024-03-25T09:32:34;5.87;64.33
66594;DHT22;53450;42.584;23.366;2024-03-25T09:35:00;6.17;63.96
66594;DHT22;53450;42.584;23.366;2024-03-25T09:37:26;6.41;62.12
66594;DHT22;53450;42.584;23.366;2024-03-25T09:39:52;6.38;59.35
66594;DHT22;53450;42.584;23.366;2024-03-25T09:42:31;6.24;60.18
66594;DHT22;53450;42.584;23.366;2024-03-25T09:44:59;5.97;60.90
66594;DHT22;53450;42.584;23.366;2024-03-25T09:47:25;5.64;59.21
66594;DHT22;53450;42.584;23.366;2024-03-25T09:49:51;5.78;59.93
66594;DHT22;53450;42.584;23.366;2024-03-25T09:52:19;5.77;60.99
66594;DHT22;53450;42.584;23.366;2024-03-25T09:54:45;6.08;59.27
66594;DHT22;53450;42.584;23.366;2024-03-25T09:57:11;6.10;61.13
66594;DHT22;53450;42.584;23.366;2024-03-25T09:59:38;6.08;61.23
66594;DHT22;53450;42.584;23.366;2024-03-25T10:02:03;6.41;59.43
66594;DHT22;53450;42.584;23.366;2024-03-25T10:04:30;6.33;58.77
66594;DHT22;53450;42.584;23.366;2024-03-25T10:06:56;6.20;57.78
66594;DHT22;53450;42.584;23.366;2024-03-25T10:09:22;6.20;57.28
66594;DHT22;53450;42.584;23.366;2024-03-25T10:11:48;6.14;56.38
66594;DHT22;53450;42.584;23.366;2024-03-25T10:14:18;6.18;58.51
66594;DHT22;53450;42.584;23.366;2024-03-25T10:16:50;5.89;59.24
66594;DHT22;53450;42.584;23.366;2024-03-25T10:19:16;5.87;59.10
66594;DHT22;53450;42.584;23.366;2024-03-25T10:21:41;5.89;59.74
66594;DHT22;53450;42.584;23.366;2024-03-25T10:24:07;6.25;60.36
66594;DHT22;53450;42.584;23.366;2024-03-25T10:26:36;6.36;60.18
66594;DHT22;53450;42.584;23.366;2024-03-25T10:29:06;6.41;59.84
66594;DHT22;53450;42.584;23.366;2024-03-25T10:31:34;6.49;59.85
66594;DHT22;53450;42.584;23.366;2024-03-25T10:34:03;6.63;58.50
66594;DHT22;53450;42.584;23.366;2024-03-25T10:36:30;6.77;58.21
66594;DHT22;53450;42.584;23.366;2024-03-25T10:38:57;6.90;57.29
66594;DHT22;53450;42.584;23.366;2024-03-25T10:41:26;6.93;56.95
66594;DHT22;53450;42.584;23.366;2024-03-25T10:43:58;6.52;55.58
66594;DHT22;53450;42.584;23.366;2024-03-25T10:46:26;6.53;56.58
66594;DHT22;53450;42.584;23.366;2024-03-25T10:49:02;6.96;58.19
66594;DHT22;53450;42.584;23.366;2024-03-25T10:51:34;7.01;55.19
66594;DHT22;53450;42.584;23.366;2024-03-25T10:54:01;6.69;56.58
66594;DHT22;53450;42.584;23.366;2024-03-25T10:56:28;6.80;56.86
66594;DHT22;53450;42.584;23.366;2024-03-25T10:58:54;7.05;56.50
66594;DHT22;53450;42.584;23.366;2024-03-25T11:01:22;6.93;54.38
66594;DHT22;53450;42.584;23.366;2024-03-25T11:03:48;7.21;55.40
66594;DHT22;53450;42.584;23.366;2024-03-25T11:06:15;7.38;56.01
66594;DHT22;53450;42.584;23.366;2024-03-25T11:08:42;7.45;54.93
66594;DHT22;53450;42.584;23.366;2024-03-25T11:11:13;7.55;52.01
66594;DHT22;53450;42.584;23.366;2024-03-25T11:13:39;7.76;53.31
66594;DHT22;53450;42.584;23.366;2024-03-25T11:16:08;7.61;50.94
66594;DHT22;53450;42.584;23.366;2024-03-25T11:18:35;7.59;52.38
66594;DHT22;53450;42.584;23.366;2024-03-25T11:21:07;7.59;52.50
66594;DHT22;53450;42.584;23.366;2024-03-25T11:23:43;7.45;52.48
66594;DHT22;53450;42.584;23.366;2024-03-25T11:26:21;7.54;51.71
66594;DHT22;53450;42.584;23.366;2024-03-25T11:28:53;7.65;51.67
66594;DHT22;53450;42.584;23.366;2024-03-25T11:31:25;7.69;50.69
66594;DHT22;53450;42.584;23.366;2024-03-25T11:34:05;7.94;52.04
66594;DHT22;53450;42.584;23.366;2024-03-25T11:36:34;7.87;50.30
66594;DHT22;53450;42.584;23.366;2024-03-25T11:39:10;7.61;50.84
66594;DHT22;53450;42.584;23.366;2024-03-25T11:41:42;7.80;51.52
66594;DHT22;53450;42.584;23.366;2024-03-25T11:44:13;7.90;53.19
66594;DHT22;53450;42.584;23.366;2024-03-25T11:46:56;7.47;53.93
66594;DHT22;53450;42.584;23.366;2024-03-25T11:49:21;6.73;53.45
66594;DHT22;53450;42.584;23.366;2024-03-25T11:52:07;6.60;55.40
66594;DHT22;53450;42.584;23.366;2024-03-25T11:54:43;6.57;55.95
66594;DHT22;53450;42.584;23.366;2024-03-25T11:57:20;6.66;54.21
66594;DHT22;53450;42.584;23.366;2024-03-25T11:59:54;6.90;54.88
66594;DHT22;53450;42.584;23.366;2024-03-25T12:02:28;7.20;55.54
66594;DHT22;53450;42.584;23.366;2024-03-25T12:04:54;7.24;54.11
66594;DHT22;53450;42.584;23.366;2024-03-25T12:07:21;7.00;54.20
66594;DHT22;53450;42.584;23.366;2024-03-25T12:09:46;7.00;54.12
66594;DHT22;53450;42.584;23.366;2024-03-25T12:12:32;7.11;55.43
66594;DHT22;53450;42.584;23.366;2024-03-25T12:14:58;7.05;54.10
66594;DHT22;53450;42.584;23.366;2024-03-25T12:17:27;7.04;56.27
66594;DHT22;53450;42.584;23.366;2024-03-25T12:20:01;6.96;56.95
66594;DHT22;53450;42.584;23.366;2024-03-25T12:22:32;6.94;54.47
66594;DHT22;53450;42.584;23.366;2024-03-25T12:25:03;7.14;54.75
66594;DHT22;53450;42.584;23.366;2024-03-25T12:27:33;7.08;55.05
66594;DHT22;53450;42.584;23.366;2024-03-25T12:30:07;6.99;54.34
66594;DHT22;53450;42.584;23.366;2024-03-25T12:32:42;7.04;55.98
66594;DHT22;53450;42.584;23.366;2024-03-25T12:35:13;6.91;53.73
66594;DHT22;53450;42.584;23.366;2024-03-25T12:37:40;7.20;55.43
66594;DHT22;53450;42.584;23.366;2024-03-25T12:40:13;6.91;54.91
66594;DHT22;53450;42.584;23.366;2024-03-25T12:42:40;6.91;56.01
66594;DHT22;53450;42.584;23.366;2024-03-25T12:45:09;6.93;55.32
66594;DHT22;53450;42.584;23.366;2024-03-25T12:47:34;6.97;55.10
66594;DHT22;53450;42.584;23.366;2024-03-25T12:50:04;6.96;55.72
66594;DHT22;53450;42.584;23.366;2024-03-25T12:52:32;6.89;55.14
66594;DHT22;53450;42.584;23.366;2024-03-25T12:54:58;6.69;53.38
66594;DHT22;53450;42.584;23.366;2024-03-25T12:57:23;6.70;54.87
66594;DHT22;53450;42.584;23.366;2024-03-25T12:59:57;6.96;53.75
66594;DHT22;53450;42.584;23.366;2024-03-25T13:02:24;7.01;55.19
66594;DHT22;53450;42.584;23.366;2024-03-25T13:04:53;7.03;54.51
66594;DHT22;53450;42.584;23.366;2024-03-25T13:07:22;6.97;54.19
66594;DHT22;53450;42.584;23.366;2024-03-25T13:09:48;6.91;55.20
66594;DHT22;53450;42.584;23.366;2024-03-25T13:12:14;7.04;55.64
66594;DHT22;53450;42.584;23.366;2024-03-25T13:14:39;7.00;56.15
66594;DHT22;53450;42.584;23.366;2024-03-25T13:17:05;6.86;55.22
66594;DHT22;53450;42.584;23.366;2024-03-25T13:19:31;6.62;56.17
66594;DHT22;53450;42.584;23.366;2024-03-25T13:21:57;6.59;56.34
66594;DHT22;53450;42.584;23.366;2024-03-25T13:24:23;6.50;56.27
66594;DHT22;53450;42.584;23.366;2024-03-25T13:26:49;6.60;54.50
66594;DHT22;53450;42.584;23.366;2024-03-25T13:29:14;6.80;55.49
66594;DHT22;53450;42.584;23.366;2024-03-25T13:31:40;7.03;54.72
66594;DHT22;53450;42.584;23.366;2024-03-25T13:34:09;7.03;54.15
66594;DHT22;53450;42.584;23.366;2024-03-25T13:36:35;7.20;55.48
66594;DHT22;53450;42.584;23.366;2024-03-25T13:39:04;7.28;53.82
66594;DHT22;53450;42.584;23.366;2024-03-25T13:42:03;7.25;52.28
66594;DHT22;53450;42.584;23.366;2024-03-25T13:44:47;7.44;52.78
66594;DHT22;53450;42.584;23.366;2024-03-25T13:47:15;7.45;51.26
66594;DHT22;53450;42.584;23.366;2024-03-25T13:49:50;7.14;52.16
66594;DHT22;53450;42.584;23.366;2024-03-25T13:52:28;6.87;51.37
66594;DHT22;53450;42.584;23.366;2024-03-25T13:54:53;6.68;50.30
66594;DHT22;53450;42.584;23.366;2024-03-25T13:57:19;6.68;51.66
66594;DHT22;53450;42.584;23.366;2024-03-25T13:59:50;6.50;51.82
66594;DHT22;53450;42.584;23.366;2024-03-25T14:02:16;6.36;51.61
66594;DHT22;53450;42.584;23.366;2024-03-25T14:04:41;6.45;52.35
66594;DHT22;53450;42.584;23.366;2024-03-25T14:07:07;6.53;52.27
66594;DHT22;53450;42.584;23.366;2024-03-25T14:09:33;6.57;52.61
66594;DHT22;53450;42.584;23.366;2024-03-25T14:11:58;6.72;53.46
66594;DHT22;53450;42.584;23.366;2024-03-25T14:14:24;6.63;53.34
66594;DHT22;53450;42.584;23.366;2024-03-25T14:16:49;6.56;56.56
66594;DHT22;53450;42.584;23.366;2024-03-25T14:19:15;6.17;59.06
66594;DHT22;53450;42.584;23.366;2024-03-25T14:21:41;6.01;60.77
66594;DHT22;53450;42.584;23.366;2024-03-25T14:24:07;6.02;62.04
66594;DHT22;53450;42.584;23.366;2024-03-25T14:26:36;5.97;62.28
66594;DHT22;53450;42.584;23.366;2024-03-25T14:29:01;6.11;62.35
66594;DHT22;53450;42.584;23.366;2024-03-25T14:31:30;6.14;62.38
66594;DHT22;53450;42.584;23.366;2024-03-25T14:33:55;6.07;62.36
66594;DHT22;53450;42.584;23.366;2024-03-25T14:36:21;5.94;62.04
66594;DHT22;53450;42.584;23.366;2024-03-25T14:38:51;6.08;62.32
66594;DHT22;53450;42.584;23.366;2024-03-25T14:41:21;5.91;62.22
66594;DHT22;53450;42.584;23.366;2024-03-25T14:43:47;5.86;62.66
66594;DHT22;53450;42.584;23.366;2024-03-25T14:46:16;5.66;61.81
66594;DHT22;53450;42.584;23.366;2024-03-25T14:48:42;5.73;62.01
66594;DHT22;53450;42.584;23.366;2024-03-25T14:51:08;5.84;61.54
66594;DHT22;53450;42.584;23.366;2024-03-25T14:53:33;5.90;61.50
66594;DHT22;53450;42.584;23.366;2024-03-25T14:55:59;5.95;61.01
66594;DHT22;53450;42.584;23.366;2024-03-25T14:58:25;6.04;60.98
66594;DHT22;53450;42.584;23.366;2024-03-25T15:00:51;6.22;60.91
66594;DHT22;53450;42.584;23.366;2024-03-25T15:03:19;6.29;60.01
66594;DHT22;53450;42.584;23.366;2024-03-25T15:05:45;6.05;59.01
66594;DHT22;53450;42.584;23.366;2024-03-25T15:08:10;6.08;59.73
66594;DHT22;53450;42.584;23.366;2024-03-25T15:10:36;6.14;59.61
66594;DHT22;53450;42.584;23.366;2024-03-25T15:13:02;6.15;59.78
66594;DHT22;53450;42.584;23.366;2024-03-25T15:15:28;6.12;59.10
66594;DHT22;53450;42.584;23.366;2024-03-25T15:17:55;6.01;59.39
66594;DHT22;53450;42.584;23.366;2024-03-25T15:20:21;5.83;59.85
66594;DHT22;53450;42.584;23.366;2024-03-25T15:22:46;5.74;59.81
66594;DHT22;53450;42.584;23.366;2024-03-25T15:25:12;5.78;58.90
66594;DHT22;53450;42.584;23.366;2024-03-25T15:27:38;5.64;56.06
66594;DHT22;53450;42.584;23.366;2024-03-25T15:30:05;5.69;57.36